Time;durP1;ratioP1;P1;durP2;ratioP2;P2;SDS_P1;SDS_P2;PMS_P1;PMS_P2;Temp;Humidity;BMP_temperature;BMP_pressure;BME280_temperature;BME280_humidity;BME280_pressure;Samples;Min_cycle;Max_cycle;Signal;HPM_P1;HPM_P2
2023/10/01 00:01:45;;;;;;;8.10;3.13;;;;;;;;;;4873616;29;20563;-78
2023/10/01 00:04:14;;;;;;;7.53;2.93;;;;;;;;;;4871676;29;20466;-76
2023/10/01 00:06:45;;;;;;;6.40;2.67;;;;;;;;;;4855490;29;20462;-78
2023/10/01 00:09:19;;;;;;;4.87;2.80;;;;;;;;;;4874736;29;20494;-77
2023/10/01 00:11:48;;;;;;;5.87;2.70;;;;;;;;;;4874415;29;20470;-77
2023/10/01 00:14:19;;;;;;;8.70;3.57;;;;;;;;;;4872580;29;21056;-76
2023/10/01 00:16:58;;;;;;;6.83;3.03;;;;;;;;;;4874513;29;20478;-75
2023/10/01 00:19:27;;;;;;;5.50;2.67;;;;;;;;;;4873667;29;20970;-77
2023/10/01 00:22:03;;;;;;;7.60;3.33;;;;;;;;;;4848796;29;20462;-77
2023/10/01 00:24:47;;;;;;;6.60;2.80;;;;;;;;;;4873324;29;20458;-77
2023/10/01 00:27:15;;;;;;;5.90;3.17;;;;;;;;;;4870584;29;20549;-77
2023/10/01 00:29:44;;;;;;;7.57;3.13;;;;;;;;;;4870724;29;20589;-77
2023/10/01 00:32:21;;;;;;;8.10;3.00;;;;;;;;;;4873116;29;20486;-77
2023/10/01 00:34:54;;;;;;;5.47;2.73;;;;;;;;;;4878105;29;20481;-77
2023/10/01 00:37:23;;;;;;;10.43;4.00;;;;;;;;;;4870918;29;20466;-77
2023/10/01 00:40:00;;;;;;;9.10;2.90;;;;;;;;;;4871067;29;20503;-77
2023/10/01 00:48:09;;;;;;;7.07;3.73;;;;;;;;;;4875596;29;20502;-79
2023/10/01 00:50:44;;;;;;;8.73;3.73;;;;;;;;;;4860363;29;20455;-78
2023/10/01 00:53:12;;;;;;;12.63;3.67;;;;;;;;;;4846098;29;20477;-80
2023/10/01 00:55:40;;;;;;;4.53;2.63;;;;;;;;;;4857528;29;20566;-80
2023/10/01 00:58:10;;;;;;;5.40;2.83;;;;;;;;;;4854541;29;20464;-80
2023/10/01 01:00:42;;;;;;;5.70;2.80;;;;;;;;;;4854464;29;20717;-79
2023/10/01 01:06:23;;;;;;;6.83;3.07;;;;;;;;;;4854753;23;20501;-77
2023/10/01 01:08:54;;;;;;;7.70;3.17;;;;;;;;;;4850246;29;20515;-78
2023/10/01 01:11:26;;;;;;;7.73;3.20;;;;;;;;;;4851662;29;20504;-76
2023/10/01 01:13:55;;;;;;;7.40;2.87;;;;;;;;;;4852836;29;20550;-78
2023/10/01 01:16:28;;;;;;;5.43;3.00;;;;;;;;;;4850174;29;20987;-77
2023/10/01 01:19:09;;;;;;;4.47;2.57;;;;;;;;;;4841573;29;20525;-77
2023/10/01 01:21:43;;;;;;;7.87;2.90;;;;;;;;;;4836831;29;20578;-77
2023/10/01 01:24:24;;;;;;;5.67;2.90;;;;;;;;;;4853040;29;20499;-78
2023/10/01 01:27:00;;;;;;;9.27;3.80;;;;;;;;;;4850014;29;20911;-76
2023/10/01 01:29:40;;;;;;;5.70;2.67;;;;;;;;;;4832945;29;20587;-78
2023/10/01 01:32:13;;;;;;;7.77;3.03;;;;;;;;;;4825733;29;20606;-77
2023/10/01 01:34:42;;;;;;;5.03;3.17;;;;;;;;;;4834546;29;20483;-77
2023/10/01 01:37:46;;;;;;;7.90;3.37;;;;;;;;;;4833148;29;20495;-78
2023/10/01 02:01:30;;;;;;;8.20;2.90;;;;;;;;;;4841964;24;20571;-77
2023/10/01 02:04:07;;;;;;;10.43;3.43;;;;;;;;;;4835915;29;20471;-77
2023/10/01 02:09:24;;;;;;;6.70;3.27;;;;;;;;;;4853705;29;20498;-76
2023/10/01 02:12:23;;;;;;;12.47;4.50;;;;;;;;;;4852991;29;20527;-77
2023/10/01 02:14:56;;;;;;;11.33;4.00;;;;;;;;;;4853014;29;20558;-77
2023/10/01 02:17:29;;;;;;;5.83;3.40;;;;;;;;;;4850371;29;20475;-76
2023/10/01 02:23:02;;;;;;;7.77;4.03;;;;;;;;;;4906934;27;7821871;-78
2023/10/01 02:25:38;;;;;;;6.53;3.77;;;;;;;;;;5160023;27;20535;-76
2023/10/01 02:28:13;;;;;;;10.93;3.73;;;;;;;;;;5157881;27;20505;-77
2023/10/01 02:30:41;;;;;;;6.90;3.73;;;;;;;;;;5160459;27;20448;-75
2023/10/01 02:33:22;;;;;;;7.50;3.63;;;;;;;;;;5161174;27;20453;-77
2023/10/01 02:35:58;;;;;;;8.53;3.87;;;;;;;;;;5161007;27;20460;-77
2023/10/01 02:38:45;;;;;;;7.33;3.80;;;;;;;;;;5142665;27;20945;-77
2023/10/01 02:44:21;;;;;;;5.90;3.43;;;;;;;;;;4870283;22;20484;-80
2023/10/01 02:46:50;;;;;;;8.43;4.13;;;;;;;;;;5081890;28;20483;-80
2023/10/01 02:49:20;;;;;;;7.37;2.93;;;;;;;;;;5086332;28;20421;-80
2023/10/01 02:51:49;;;;;;;6.67;3.40;;;;;;;;;;5082234;28;20548;-80
2023/10/01 02:54:18;;;;;;;7.43;3.50;;;;;;;;;;5083215;28;20454;-79
2023/10/01 02:57:12;;;;;;;7.87;3.30;;;;;;;;;;5069994;28;20449;-79
2023/10/01 03:00:09;;;;;;;6.17;3.57;;;;;;;;;;5087051;28;20464;-81
2023/10/01 03:02:30;;;;;;;9.03;4.20;;;;;;;;;;5086366;28;20484;-82
2023/10/01 03:05:01;;;;;;;5.87;3.70;;;;;;;;;;5086240;28;20453;-81
2023/10/01 03:07:38;;;;;;;7.20;4.07;;;;;;;;;;5083700;28;20456;-79
2023/10/01 03:10:25;;;;;;;7.77;3.30;;;;;;;;;;5088005;28;20523;-79
2023/10/01 03:12:53;;;;;;;7.00;3.33;;;;;;;;;;5084925;28;20532;-80
2023/10/01 03:15:29;;;;;;;9.40;4.13;;;;;;;;;;5085263;28;20441;-79
2023/10/01 03:17:58;;;;;;;10.00;3.97;;;;;;;;;;5087467;28;20482;-78
2023/10/01 03:26:27;;;;;;;8.10;4.50;;;;;;;;;;5080163;28;20424;-80
2023/10/01 03:52:29;;;;;;;16.63;4.67;;;;;;;;;;5841920;22;20399;-77
2023/10/01 03:55:25;;;;;;;8.13;4.53;;;;;;;;;;5025221;28;20859;-78
2023/10/01 03:58:05;;;;;;;7.40;4.67;;;;;;;;;;5008114;28;20496;-76
2023/10/01 04:00:53;;;;;;;10.33;4.93;;;;;;;;;;4999635;28;20575;-78
2023/10/01 04:03:36;;;;;;;9.00;5.27;;;;;;;;;;5002477;28;20468;-77
2023/10/01 04:06:06;;;;;;;11.03;5.00;;;;;;;;;;5000525;28;20448;-75
2023/10/01 04:08:44;;;;;;;9.27;4.97;;;;;;;;;;5003182;28;20471;-77
2023/10/01 04:11:15;;;;;;;7.93;4.73;;;;;;;;;;5009690;28;20535;-76
2023/10/01 04:13:44;;;;;;;9.97;5.43;;;;;;;;;;5007922;28;20480;-77
2023/10/01 04:16:15;;;;;;;9.60;4.50;;;;;;;;;;5030629;28;20517;-77
2023/10/01 04:18:48;;;;;;;8.70;5.20;;;;;;;;;;5020831;28;20729;-77
2023/10/01 04:21:25;;;;;;;10.50;5.50;;;;;;;;;;5023162;28;20493;-76
2023/10/01 04:24:02;;;;;;;7.87;4.40;;;;;;;;;;5041144;28;20461;-77
2023/10/01 04:26:33;;;;;;;13.80;5.67;;;;;;;;;;5042866;28;20519;-77
2023/10/01 04:29:44;;;;;;;10.73;5.47;;;;;;;;;;5040097;28;20492;-76
2023/10/01 04:32:21;;;;;;;13.27;5.83;;;;;;;;;;5042018;28;20470;-77
2023/10/01 04:34:52;;;;;;;8.10;5.80;;;;;;;;;;5041889;28;20442;-77
2023/10/01 05:01:47;;;;;;;9.13;6.00;;;;;;;;;;5055853;28;20805;-77
2023/10/01 05:04:16;;;;;;;9.73;6.27;;;;;;;;;;5061715;28;20453;-77
2023/10/01 05:07:10;;;;;;;10.70;6.50;;;;;;;;;;5061217;28;20462;-77
2023/10/01 05:18:48;;;;;;;8.33;6.43;;;;;;;;;;4982418;28;20446;-77
2023/10/01 05:27:42;;;;;;;10.00;6.50;;;;;;;;;;5004214;28;20495;-78
2023/10/01 05:50:30;;;;;;;11.37;7.23;;;;;;;;;;5026528;28;20447;-79
2023/10/01 06:05:22;;;;;;;14.87;6.47;;;;;;;;;;5033653;28;20426;-77
2023/10/01 06:08:15;;;;;;;9.73;6.00;;;;;;;;;;5041154;28;20444;-77
2023/10/01 06:11:09;;;;;;;9.33;7.00;;;;;;;;;;5015752;28;20462;-77
2023/10/01 06:35:33;;;;;;;10.40;7.30;;;;;;;;;;5027158;28;20514;-76
2023/10/01 06:38:08;;;;;;;10.40;7.10;;;;;;;;;;5027788;28;20524;-78
2023/10/01 07:15:55;;;;;;;9.70;6.97;;;;;;;;;;5479479;23;20489;-77
2023/10/01 07:18:43;;;;;;;12.87;8.60;;;;;;;;;;5027030;28;20794;-77
2023/10/01 20:05:13;;;;;;;14.43;7.93;;;;;;;;;;4999051;28;20614;-77
2023/10/01 21:03:32;;;;;;;12.23;6.13;;;;;;;;;;5872321;23;22188;-78
